sensor_id;sensor_type;location;lat;lon;timestamp;pressure;altitude;pressure_sealevel;temperature;humidity
31595;BME280;18200;48.726;8.892;2023-04-26T00:02:57;96767.28;;;22.22;34.15
31595;BME280;18200;48.726;8.892;2023-04-26T00:06:58;96763.03;;;21.89;34.52
31595;BME280;18200;48.726;8.892;2023-04-26T00:10:59;96758.84;;;22.01;34.81
31595;BME280;18200;48.726;8.892;2023-04-26T00:15:00;96763.75;;;22.22;33.77
31595;BME280;18200;48.726;8.892;2023-04-26T00:19:00;96761.06;;;22.06;33.63
31595;BME280;18200;48.726;8.892;2023-04-26T00:23:01;96763.94;;;22.15;33.71
31595;BME280;18200;48.726;8.892;2023-04-26T00:27:02;96767.56;;;21.96;33.91
31595;BME280;18200;48.726;8.892;2023-04-26T00:31:14;96770.44;;;21.56;34.49
31595;BME280;18200;48.726;8.892;2023-04-26T00:35:15;96765.84;;;21.70;34.62
31595;BME280;18200;48.726;8.892;2023-04-26T00:39:15;96763.97;;;21.50;34.50
31595;BME280;18200;48.726;8.892;2023-04-26T00:43:16;96758.19;;;20.73;35.34
31595;BME280;18200;48.726;8.892;2023-04-26T00:47:16;96761.53;;;20.81;34.86
31595;BME280;18200;48.726;8.892;2023-04-26T00:51:16;96769.91;;;21.61;34.12
31595;BME280;18200;48.726;8.892;2023-04-26T00:55:18;96773.78;;;21.64;34.60
31595;BME280;18200;48.726;8.892;2023-04-26T00:59:20;96769.78;;;21.52;33.65
31595;BME280;18200;48.726;8.892;2023-04-26T01:03:21;96774.03;;;20.82;35.14
31595;BME280;18200;48.726;8.892;2023-04-26T01:07:22;96779.63;;;21.14;34.35
31595;BME280;18200;48.726;8.892;2023-04-26T01:11:22;96774.69;;;21.41;34.50
31595;BME280;18200;48.726;8.892;2023-04-26T01:15:25;96767.88;;;21.33;33.67
31595;BME280;18200;48.726;8.892;2023-04-26T01:19:27;96772.75;;;21.06;34.24
31595;BME280;18200;48.726;8.892;2023-04-26T01:23:27;96770.63;;;21.66;33.97
31595;BME280;18200;48.726;8.892;2023-04-26T01:27:27;96764.97;;;21.73;33.72
31595;BME280;18200;48.726;8.892;2023-04-26T01:31:28;96769.06;;;21.64;32.75
31595;BME280;18200;48.726;8.892;2023-04-26T01:35:28;96773.22;;;21.21;32.67
31595;BME280;18200;48.726;8.892;2023-04-26T01:39:28;96764.94;;;21.40;32.67
31595;BME280;18200;48.726;8.892;2023-04-26T01:43:29;96763.78;;;21.41;32.37
31595;BME280;18200;48.726;8.892;2023-04-26T01:47:31;96769.00;;;20.61;33.99
31595;BME280;18200;48.726;8.892;2023-04-26T01:51:31;96769.09;;;21.13;33.79
31595;BME280;18200;48.726;8.892;2023-04-26T01:55:32;96754.34;;;21.26;33.48
31595;BME280;18200;48.726;8.892;2023-04-26T01:59:33;96748.56;;;21.40;32.83
31595;BME280;18200;48.726;8.892;2023-04-26T02:03:34;96750.69;;;21.49;33.09
31595;BME280;18200;48.726;8.892;2023-04-26T02:07:35;96750.94;;;21.38;32.89
31595;BME280;18200;48.726;8.892;2023-04-26T02:11:35;96758.78;;;21.20;33.26
31595;BME280;18200;48.726;8.892;2023-04-26T02:15:35;96769.53;;;21.11;33.39
31595;BME280;18200;48.726;8.892;2023-04-26T02:19:36;96770.97;;;20.96;33.34
31595;BME280;18200;48.726;8.892;2023-04-26T02:23:36;96768.25;;;20.96;33.35
31595;BME280;18200;48.726;8.892;2023-04-26T02:27:37;96765.88;;;20.98;33.41
31595;BME280;18200;48.726;8.892;2023-04-26T02:31:37;96768.75;;;21.11;33.02
31595;BME280;18200;48.726;8.892;2023-04-26T02:35:38;96763.91;;;21.18;33.14
31595;BME280;18200;48.726;8.892;2023-04-26T02:39:39;96763.13;;;19.73;34.96
31595;BME280;18200;48.726;8.892;2023-04-26T02:43:39;96769.50;;;19.40;35.74
31595;BME280;18200;48.726;8.892;2023-04-26T02:47:40;96778.41;;;20.13;34.90
31595;BME280;18200;48.726;8.892;2023-04-26T02:51:40;96768.91;;;20.64;34.17
31595;BME280;18200;48.726;8.892;2023-04-26T02:55:40;96761.84;;;20.67;33.98
31595;BME280;18200;48.726;8.892;2023-04-26T02:59:41;96774.16;;;20.36;34.30
31595;BME280;18200;48.726;8.892;2023-04-26T03:03:43;96772.38;;;20.02;33.87
31595;BME280;18200;48.726;8.892;2023-04-26T03:07:43;96777.78;;;20.49;33.97
31595;BME280;18200;48.726;8.892;2023-04-26T03:11:43;96772.50;;;19.72;34.74
31595;BME280;18200;48.726;8.892;2023-04-26T03:15:44;96777.41;;;19.01;36.42
31595;BME280;18200;48.726;8.892;2023-04-26T03:19:45;96773.44;;;20.08;35.36
31595;BME280;18200;48.726;8.892;2023-04-26T03:23:46;96776.16;;;20.32;34.67
31595;BME280;18200;48.726;8.892;2023-04-26T03:27:47;96777.50;;;20.43;33.72
31595;BME280;18200;48.726;8.892;2023-04-26T03:31:48;96770.09;;;20.44;34.17
31595;BME280;18200;48.726;8.892;2023-04-26T03:35:48;96767.38;;;19.74;34.47
31595;BME280;18200;48.726;8.892;2023-04-26T03:39:50;96765.44;;;19.98;34.05
31595;BME280;18200;48.726;8.892;2023-04-26T03:43:54;96762.72;;;19.75;34.14
31595;BME280;18200;48.726;8.892;2023-04-26T03:47:54;96762.97;;;19.04;35.53
31595;BME280;18200;48.726;8.892;2023-04-26T03:51:56;96758.50;;;19.70;34.88
31595;BME280;18200;48.726;8.892;2023-04-26T03:55:56;96769.31;;;19.77;34.54
31595;BME280;18200;48.726;8.892;2023-04-26T03:59:57;96772.72;;;20.04;34.59
31595;BME280;18200;48.726;8.892;2023-04-26T04:03:58;96778.59;;;20.03;33.95
31595;BME280;18200;48.726;8.892;2023-04-26T04:07:58;96783.16;;;20.09;34.06
31595;BME280;18200;48.726;8.892;2023-04-26T04:11:59;96773.56;;;20.01;33.44
31595;BME280;18200;48.726;8.892;2023-04-26T04:16:00;96769.19;;;19.61;33.70
31595;BME280;18200;48.726;8.892;2023-04-26T04:20:01;96778.44;;;19.67;33.87
31595;BME280;18200;48.726;8.892;2023-04-26T04:24:06;96767.97;;;19.39;34.15
31595;BME280;18200;48.726;8.892;2023-04-26T04:28:07;96771.09;;;19.38;34.35
31595;BME280;18200;48.726;8.892;2023-04-26T04:32:08;96775.00;;;19.63;34.33
31595;BME280;18200;48.726;8.892;2023-04-26T04:36:10;96772.13;;;19.17;34.08
31595;BME280;18200;48.726;8.892;2023-04-26T04:40:11;96786.25;;;18.44;35.47
31595;BME280;18200;48.726;8.892;2023-04-26T04:44:15;96781.75;;;18.27;36.30
31595;BME280;18200;48.726;8.892;2023-04-26T04:48:16;96782.13;;;18.67;35.67
31595;BME280;18200;48.726;8.892;2023-04-26T04:52:19;96782.00;;;19.07;35.97
31595;BME280;18200;48.726;8.892;2023-04-26T04:56:22;96790.03;;;19.18;34.72
31595;BME280;18200;48.726;8.892;2023-04-26T05:00:24;96789.56;;;19.23;35.67
31595;BME280;18200;48.726;8.892;2023-04-26T05:04:30;96789.75;;;19.39;35.23
31595;BME280;18200;48.726;8.892;2023-04-26T05:08:33;96793.81;;;19.24;35.09
31595;BME280;18200;48.726;8.892;2023-04-26T05:16:53;96805.34;;;18.78;35.34
31595;BME280;18200;48.726;8.892;2023-04-26T05:20:54;96814.34;;;19.02;35.16
31595;BME280;18200;48.726;8.892;2023-04-26T05:24:56;96819.38;;;19.37;35.30
31595;BME280;18200;48.726;8.892;2023-04-26T05:28:57;96815.25;;;19.52;34.71
31595;BME280;18200;48.726;8.892;2023-04-26T06:44:25;96841.13;;;21.38;32.45
31595;BME280;18200;48.726;8.892;2023-04-26T06:48:33;96840.97;;;21.29;31.16
31595;BME280;18200;48.726;8.892;2023-04-26T06:52:38;96839.09;;;21.42;30.98
31595;BME280;18200;48.726;8.892;2023-04-26T06:56:39;96836.00;;;21.76;31.56
31595;BME280;18200;48.726;8.892;2023-04-26T07:00:40;96833.22;;;21.96;29.57
31595;BME280;18200;48.726;8.892;2023-04-26T07:36:52;96812.59;;;22.68;25.36
31595;BME280;18200;48.726;8.892;2023-04-26T07:40:54;96805.84;;;22.57;25.59
31595;BME280;18200;48.726;8.892;2023-04-26T07:44:54;96802.59;;;22.90;25.56
31595;BME280;18200;48.726;8.892;2023-04-26T07:48:54;96806.69;;;23.11;24.44
31595;BME280;18200;48.726;8.892;2023-04-26T07:52:55;96812.75;;;23.19;25.21
31595;BME280;18200;48.726;8.892;2023-04-26T07:56:55;96822.22;;;22.89;26.03
31595;BME280;18200;48.726;8.892;2023-04-26T08:00:56;96820.72;;;22.27;26.67
31595;BME280;18200;48.726;8.892;2023-04-26T08:04:56;96825.31;;;23.03;25.71
31595;BME280;18200;48.726;8.892;2023-04-26T08:08:56;96830.44;;;22.89;25.78
31595;BME280;18200;48.726;8.892;2023-04-26T08:12:57;96831.59;;;23.04;25.89
31595;BME280;18200;48.726;8.892;2023-04-26T08:17:02;96829.03;;;21.39;27.12
31595;BME280;18200;48.726;8.892;2023-04-26T08:21:02;96827.59;;;22.92;25.16
31595;BME280;18200;48.726;8.892;2023-04-26T08:25:03;96833.56;;;23.57;25.18
31595;BME280;18200;48.726;8.892;2023-04-26T08:29:04;96846.72;;;21.15;27.50
31595;BME280;18200;48.726;8.892;2023-04-26T08:33:05;96838.44;;;20.79;28.79
31595;BME280;18200;48.726;8.892;2023-04-26T08:37:06;96835.69;;;21.90;26.28
31595;BME280;18200;48.726;8.892;2023-04-26T08:41:12;96842.25;;;22.41;26.09
31595;BME280;18200;48.726;8.892;2023-04-26T08:45:14;96836.50;;;23.38;24.94
31595;BME280;18200;48.726;8.892;2023-04-26T08:49:33;96837.75;;;23.21;24.75
31595;BME280;18200;48.726;8.892;2023-04-26T08:53:39;96840.25;;;21.25;27.16
31595;BME280;18200;48.726;8.892;2023-04-26T08:57:41;96834.53;;;23.09;24.54
31595;BME280;18200;48.726;8.892;2023-04-26T09:01:43;96831.91;;;23.85;23.92
31595;BME280;18200;48.726;8.892;2023-04-26T09:05:44;96834.81;;;24.62;23.80
31595;BME280;18200;48.726;8.892;2023-04-26T09:09:47;96825.03;;;24.96;23.34
31595;BME280;18200;48.726;8.892;2023-04-26T09:13:48;96823.75;;;24.88;22.90
31595;BME280;18200;48.726;8.892;2023-04-26T09:17:49;96825.19;;;25.75;21.93
31595;BME280;18200;48.726;8.892;2023-04-26T09:21:50;96825.53;;;25.03;22.79
31595;BME280;18200;48.726;8.892;2023-04-26T09:25:50;96819.56;;;24.96;23.48
31595;BME280;18200;48.726;8.892;2023-04-26T09:33:59;96815.94;;;21.99;26.52
31595;BME280;18200;48.726;8.892;2023-04-26T09:42:02;96808.59;;;24.27;24.00
31595;BME280;18200;48.726;8.892;2023-04-26T09:46:03;96811.19;;;24.31;23.84
31595;BME280;18200;48.726;8.892;2023-04-26T09:50:04;96802.75;;;24.59;23.25
31595;BME280;18200;48.726;8.892;2023-04-26T09:54:04;96805.50;;;24.25;23.85
31595;BME280;18200;48.726;8.892;2023-04-26T09:58:09;96810.03;;;25.40;23.49
31595;BME280;18200;48.726;8.892;2023-04-26T10:02:20;96806.50;;;25.39;22.74
31595;BME280;18200;48.726;8.892;2023-04-26T10:06:22;96810.28;;;25.33;22.79
31595;BME280;18200;48.726;8.892;2023-04-26T10:10:22;96809.97;;;26.01;21.95
31595;BME280;18200;48.726;8.892;2023-04-26T10:14:23;96798.97;;;23.85;24.28
31595;BME280;18200;48.726;8.892;2023-04-26T10:18:23;96800.91;;;25.92;20.50
31595;BME280;18200;48.726;8.892;2023-04-26T10:22:34;96795.06;;;25.72;22.04
31595;BME280;18200;48.726;8.892;2023-04-26T10:26:53;96795.66;;;23.90;24.06
31595;BME280;18200;48.726;8.892;2023-04-26T10:30:57;96795.50;;;24.87;22.54
31595;BME280;18200;48.726;8.892;2023-04-26T10:35:12;96795.22;;;25.16;22.48
31595;BME280;18200;48.726;8.892;2023-04-26T10:39:19;96797.78;;;25.10;22.55
31595;BME280;18200;48.726;8.892;2023-04-26T10:43:27;96785.56;;;26.58;21.84
31595;BME280;18200;48.726;8.892;2023-04-26T10:47:33;96789.09;;;25.12;22.13
31595;BME280;18200;48.726;8.892;2023-04-26T10:51:35;96765.00;;;25.95;22.22
31595;BME280;18200;48.726;8.892;2023-04-26T10:55:41;96774.53;;;26.22;20.45
31595;BME280;18200;48.726;8.892;2023-04-26T11:00:15;96786.19;;;24.16;23.24
31595;BME280;18200;48.726;8.892;2023-04-26T11:04:16;96784.03;;;23.86;23.48
31595;BME280;18200;48.726;8.892;2023-04-26T11:08:20;96778.88;;;24.35;22.53
31595;BME280;18200;48.726;8.892;2023-04-26T11:12:23;96779.09;;;25.27;21.85
31595;BME280;18200;48.726;8.892;2023-04-26T11:16:27;96767.84;;;24.47;23.81
31595;BME280;18200;48.726;8.892;2023-04-26T11:20:29;96771.06;;;23.99;23.51
31595;BME280;18200;48.726;8.892;2023-04-26T11:24:30;96751.47;;;25.70;22.90
31595;BME280;18200;48.726;8.892;2023-04-26T11:28:33;96743.00;;;23.20;24.56
31595;BME280;18200;48.726;8.892;2023-04-26T11:32:34;96748.91;;;24.06;23.31
31595;BME280;18200;48.726;8.892;2023-04-26T11:36:36;96734.06;;;24.59;22.39
31595;BME280;18200;48.726;8.892;2023-04-26T11:40:37;96735.53;;;24.95;23.06
31595;BME280;18200;48.726;8.892;2023-04-26T11:44:39;96727.25;;;24.42;24.04
31595;BME280;18200;48.726;8.892;2023-04-26T11:48:40;96714.97;;;27.38;20.61
31595;BME280;18200;48.726;8.892;2023-04-26T11:52:40;96713.03;;;27.21;20.62
31595;BME280;18200;48.726;8.892;2023-04-26T11:56:41;96707.22;;;26.32;21.72
31595;BME280;18200;48.726;8.892;2023-04-26T12:09:23;96730.94;;;25.53;21.29
31595;BME280;18200;48.726;8.892;2023-04-26T12:13:23;96714.41;;;25.44;21.00
31595;BME280;18200;48.726;8.892;2023-04-26T12:17:27;96714.94;;;24.13;22.34
31595;BME280;18200;48.726;8.892;2023-04-26T12:21:27;96711.63;;;26.02;21.10
31595;BME280;18200;48.726;8.892;2023-04-26T12:25:28;96708.72;;;26.51;21.35
31595;BME280;18200;48.726;8.892;2023-04-26T12:29:29;96704.84;;;28.54;18.69
31595;BME280;18200;48.726;8.892;2023-04-26T12:33:31;96701.38;;;26.57;20.87
31595;BME280;18200;48.726;8.892;2023-04-26T12:37:32;96707.69;;;24.40;22.28
31595;BME280;18200;48.726;8.892;2023-04-26T12:41:32;96698.28;;;25.82;21.44
31595;BME280;18200;48.726;8.892;2023-04-26T12:45:33;96693.22;;;27.22;20.34
31595;BME280;18200;48.726;8.892;2023-04-26T12:49:33;96689.34;;;28.85;17.93
31595;BME280;18200;48.726;8.892;2023-04-26T12:53:34;96701.66;;;25.37;21.38
31595;BME280;18200;48.726;8.892;2023-04-26T12:57:38;96701.63;;;28.17;19.13
31595;BME280;18200;48.726;8.892;2023-04-26T13:01:39;96692.28;;;27.34;19.52
31595;BME280;18200;48.726;8.892;2023-04-26T13:05:40;96693.53;;;25.25;22.24
31595;BME280;18200;48.726;8.892;2023-04-26T13:09:41;96682.81;;;26.75;20.78
31595;BME280;18200;48.726;8.892;2023-04-26T13:13:41;96683.50;;;28.16;19.18
31595;BME280;18200;48.726;8.892;2023-04-26T13:17:42;96692.22;;;28.62;18.71
31595;BME280;18200;48.726;8.892;2023-04-26T13:21:43;96690.16;;;27.38;19.77
31595;BME280;18200;48.726;8.892;2023-04-26T13:25:43;96690.34;;;26.66;20.92
31595;BME280;18200;48.726;8.892;2023-04-26T13:29:44;96688.22;;;28.01;19.34
31595;BME280;18200;48.726;8.892;2023-04-26T13:33:45;96682.66;;;26.70;20.72
31595;BME280;18200;48.726;8.892;2023-04-26T13:37:49;96695.78;;;24.43;23.14
31595;BME280;18200;48.726;8.892;2023-04-26T13:41:50;96680.78;;;26.94;20.35
31595;BME280;18200;48.726;8.892;2023-04-26T13:45:50;96683.44;;;27.21;19.92
31595;BME280;18200;48.726;8.892;2023-04-26T13:49:52;96678.59;;;27.73;19.91
31595;BME280;18200;48.726;8.892;2023-04-26T13:53:53;96681.41;;;27.63;20.43
31595;BME280;18200;48.726;8.892;2023-04-26T13:57:54;96675.97;;;26.44;21.24
31595;BME280;18200;48.726;8.892;2023-04-26T14:01:55;96671.47;;;26.92;20.52
31595;BME280;18200;48.726;8.892;2023-04-26T14:05:56;96668.00;;;27.47;20.55
31595;BME280;18200;48.726;8.892;2023-04-26T14:09:56;96666.97;;;27.03;20.95
31595;BME280;18200;48.726;8.892;2023-04-26T14:13:57;96665.97;;;28.04;19.65
31595;BME280;18200;48.726;8.892;2023-04-26T14:17:58;96674.72;;;27.55;19.45
31595;BME280;18200;48.726;8.892;2023-04-26T14:21:58;96667.22;;;28.85;18.38
31595;BME280;18200;48.726;8.892;2023-04-26T14:25:58;96665.25;;;28.33;20.27
31595;BME280;18200;48.726;8.892;2023-04-26T14:29:59;96657.50;;;27.84;20.38
31595;BME280;18200;48.726;8.892;2023-04-26T14:33:59;96658.31;;;30.40;17.82
31595;BME280;18200;48.726;8.892;2023-04-26T14:37:59;96655.88;;;30.28;18.43
31595;BME280;18200;48.726;8.892;2023-04-26T14:42:00;96666.91;;;30.42;18.05
31595;BME280;18200;48.726;8.892;2023-04-26T14:46:00;96667.88;;;30.91;18.44
31595;BME280;18200;48.726;8.892;2023-04-26T14:50:02;96672.19;;;28.81;19.25
31595;BME280;18200;48.726;8.892;2023-04-26T14:54:03;96673.44;;;28.13;20.71
31595;BME280;18200;48.726;8.892;2023-04-26T14:58:03;96664.22;;;29.03;19.74
31595;BME280;18200;48.726;8.892;2023-04-26T15:02:04;96669.97;;;28.03;20.71
31595;BME280;18200;48.726;8.892;2023-04-26T15:06:07;96664.50;;;29.05;20.22
31595;BME280;18200;48.726;8.892;2023-04-26T15:10:08;96667.41;;;27.43;20.67
31595;BME280;18200;48.726;8.892;2023-04-26T15:14:09;96663.53;;;28.21;20.06
31595;BME280;18200;48.726;8.892;2023-04-26T15:18:09;96654.53;;;30.43;17.89
31595;BME280;18200;48.726;8.892;2023-04-26T15:22:10;96648.28;;;31.00;17.56
31595;BME280;18200;48.726;8.892;2023-04-26T15:26:11;96657.31;;;27.40;21.04
31595;BME280;18200;48.726;8.892;2023-04-26T15:30:11;96653.72;;;27.96;20.88
31595;BME280;18200;48.726;8.892;2023-04-26T15:34:12;96642.91;;;26.44;22.20
31595;BME280;18200;48.726;8.892;2023-04-26T15:38:12;96649.25;;;26.86;21.63
31595;BME280;18200;48.726;8.892;2023-04-26T15:42:12;96648.03;;;27.52;21.12
31595;BME280;18200;48.726;8.892;2023-04-26T15:46:13;96640.72;;;26.57;21.30
31595;BME280;18200;48.726;8.892;2023-04-26T15:50:14;96647.28;;;27.19;21.99
31595;BME280;18200;48.726;8.892;2023-04-26T15:54:14;96648.59;;;26.40;22.39
31595;BME280;18200;48.726;8.892;2023-04-26T15:58:15;96651.84;;;26.89;21.81
31595;BME280;18200;48.726;8.892;2023-04-26T16:02:15;96653.03;;;26.38;22.32
31595;BME280;18200;48.726;8.892;2023-04-26T16:06:16;96648.13;;;25.96;22.81
31595;BME280;18200;48.726;8.892;2023-04-26T16:10:16;96654.31;;;25.03;24.31
31595;BME280;18200;48.726;8.892;2023-04-26T16:14:16;96648.38;;;27.45;22.23
31595;BME280;18200;48.726;8.892;2023-04-26T16:18:17;96652.41;;;28.88;20.92
31595;BME280;18200;48.726;8.892;2023-04-26T16:22:17;96658.09;;;28.41;20.54
31595;BME280;18200;48.726;8.892;2023-04-26T16:26:18;96654.41;;;27.02;21.76
31595;BME280;18200;48.726;8.892;2023-04-26T16:30:18;96664.22;;;26.25;22.55
31595;BME280;18200;48.726;8.892;2023-04-26T16:34:18;96653.34;;;26.12;22.91
31595;BME280;18200;48.726;8.892;2023-04-26T16:38:19;96653.00;;;26.47;22.68
31595;BME280;18200;48.726;8.892;2023-04-26T16:42:19;96656.66;;;23.96;25.02
31595;BME280;18200;48.726;8.892;2023-04-26T16:46:20;96663.75;;;23.84;25.68
31595;BME280;18200;48.726;8.892;2023-04-26T16:50:20;96656.38;;;23.35;26.53
31595;BME280;18200;48.726;8.892;2023-04-26T16:54:21;96654.34;;;23.73;25.29
31595;BME280;18200;48.726;8.892;2023-04-26T16:58:21;96660.03;;;24.34;25.64
31595;BME280;18200;48.726;8.892;2023-04-26T17:02:22;96654.66;;;24.52;25.27
31595;BME280;18200;48.726;8.892;2023-04-26T17:06:22;96666.06;;;24.73;25.16
31595;BME280;18200;48.726;8.892;2023-04-26T17:10:24;96658.41;;;25.38;25.61
31595;BME280;18200;48.726;8.892;2023-04-26T17:14:25;96657.47;;;25.81;24.64
31595;BME280;18200;48.726;8.892;2023-04-26T17:18:25;96658.34;;;25.20;24.67
31595;BME280;18200;48.726;8.892;2023-04-26T17:22:26;96667.69;;;24.83;24.33
31595;BME280;18200;48.726;8.892;2023-04-26T17:26:26;96669.19;;;24.84;24.87
31595;BME280;18200;48.726;8.892;2023-04-26T17:30:26;96663.38;;;25.52;24.35
31595;BME280;18200;48.726;8.892;2023-04-26T17:34:27;96669.63;;;24.30;25.46
31595;BME280;18200;48.726;8.892;2023-04-26T17:38:27;96679.84;;;23.95;26.29
31595;BME280;18200;48.726;8.892;2023-04-26T17:42:28;96683.78;;;24.50;25.82
31595;BME280;18200;48.726;8.892;2023-04-26T17:46:28;96683.03;;;24.06;26.10
31595;BME280;18200;48.726;8.892;2023-04-26T17:50:29;96687.41;;;24.47;25.82
31595;BME280;18200;48.726;8.892;2023-04-26T17:54:29;96690.50;;;23.93;26.15
31595;BME280;18200;48.726;8.892;2023-04-26T17:58:29;96696.69;;;25.14;25.32
31595;BME280;18200;48.726;8.892;2023-04-26T18:02:30;96701.28;;;24.87;25.54
31595;BME280;18200;48.726;8.892;2023-04-26T18:06:30;96696.72;;;25.81;24.73
31595;BME280;18200;48.726;8.892;2023-04-26T18:10:31;96704.97;;;24.06;26.50
31595;BME280;18200;48.726;8.892;2023-04-26T18:14:31;96702.88;;;24.53;26.14
31595;BME280;18200;48.726;8.892;2023-04-26T18:18:31;96704.72;;;25.00;25.54
31595;BME280;18200;48.726;8.892;2023-04-26T18:22:32;96707.53;;;25.58;24.92
31595;BME280;18200;48.726;8.892;2023-04-26T18:26:32;96706.50;;;25.55;25.04
31595;BME280;18200;48.726;8.892;2023-04-26T18:30:32;96717.59;;;25.12;25.31
31595;BME280;18200;48.726;8.892;2023-04-26T18:34:33;96733.09;;;24.97;25.21
31595;BME280;18200;48.726;8.892;2023-04-26T18:38:33;96733.84;;;25.28;24.46
31595;BME280;18200;48.726;8.892;2023-04-26T18:42:34;96728.97;;;25.63;24.68
31595;BME280;18200;48.726;8.892;2023-04-26T18:46:34;96728.34;;;25.59;24.68
31595;BME280;18200;48.726;8.892;2023-04-26T18:50:35;96737.03;;;25.48;25.23
31595;BME280;18200;48.726;8.892;2023-04-26T18:54:35;96746.94;;;25.46;25.45
31595;BME280;18200;48.726;8.892;2023-04-26T18:58:37;96746.78;;;25.49;25.10
31595;BME280;18200;48.726;8.892;2023-04-26T19:02:38;96751.47;;;25.09;26.09
31595;BME280;18200;48.726;8.892;2023-04-26T19:06:41;96756.09;;;25.12;25.76
31595;BME280;18200;48.726;8.892;2023-04-26T19:10:41;96767.56;;;25.19;25.61
31595;BME280;18200;48.726;8.892;2023-04-26T19:14:41;96770.63;;;25.43;25.40
31595;BME280;18200;48.726;8.892;2023-04-26T19:18:42;96770.63;;;25.43;24.66
31595;BME280;18200;48.726;8.892;2023-04-26T19:22:43;96773.63;;;25.67;24.97
31595;BME280;18200;48.726;8.892;2023-04-26T19:26:46;96774.25;;;25.71;24.74
31595;BME280;18200;48.726;8.892;2023-04-26T19:30:46;96777.59;;;25.66;24.79
31595;BME280;18200;48.726;8.892;2023-04-26T19:34:47;96783.81;;;25.48;25.67
31595;BME280;18200;48.726;8.892;2023-04-26T19:38:47;96787.25;;;25.39;26.30
31595;BME280;18200;48.726;8.892;2023-04-26T19:42:47;96780.59;;;25.28;27.01
31595;BME280;18200;48.726;8.892;2023-04-26T19:46:48;96795.13;;;24.98;27.44
31595;BME280;18200;48.726;8.892;2023-04-26T19:50:48;96796.06;;;25.25;26.61
31595;BME280;18200;48.726;8.892;2023-04-26T19:54:52;96788.41;;;24.99;27.07
31595;BME280;18200;48.726;8.892;2023-04-26T19:58:52;96792.91;;;25.36;26.64
31595;BME280;18200;48.726;8.892;2023-04-26T20:02:53;96793.97;;;25.08;26.72
31595;BME280;18200;48.726;8.892;2023-04-26T20:06:53;96803.06;;;24.96;27.11
31595;BME280;18200;48.726;8.892;2023-04-26T20:10:53;96799.59;;;24.83;27.18
31595;BME280;18200;48.726;8.892;2023-04-26T20:14:54;96802.59;;;24.76;26.99
31595;BME280;18200;48.726;8.892;2023-04-26T20:18:54;96802.03;;;24.81;26.69
31595;BME280;18200;48.726;8.892;2023-04-26T20:22:55;96808.09;;;24.41;26.85
31595;BME280;18200;48.726;8.892;2023-04-26T20:26:55;96812.56;;;24.01;28.37
31595;BME280;18200;48.726;8.892;2023-04-26T20:30:55;96806.34;;;24.35;27.97
31595;BME280;18200;48.726;8.892;2023-04-26T20:34:56;96809.88;;;24.35;28.37
31595;BME280;18200;48.726;8.892;2023-04-26T20:38:56;96804.66;;;24.50;28.46
31595;BME280;18200;48.726;8.892;2023-04-26T20:42:57;96797.50;;;24.18;28.62
31595;BME280;18200;48.726;8.892;2023-04-26T20:46:57;96799.53;;;23.42;29.84
31595;BME280;18200;48.726;8.892;2023-04-26T20:51:01;96795.50;;;23.47;30.91
31595;BME280;18200;48.726;8.892;2023-04-26T20:55:02;96800.53;;;23.36;30.22
31595;BME280;18200;48.726;8.892;2023-04-26T20:59:03;96803.69;;;22.80;30.94
31595;BME280;18200;48.726;8.892;2023-04-26T21:03:03;96797.53;;;23.55;30.34
31595;BME280;18200;48.726;8.892;2023-04-26T21:07:03;96795.22;;;23.79;29.59
31595;BME280;18200;48.726;8.892;2023-04-26T21:11:04;96798.72;;;23.92;29.36
31595;BME280;18200;48.726;8.892;2023-04-26T21:15:05;96797.25;;;23.66;30.22
31595;BME280;18200;48.726;8.892;2023-04-26T21:19:05;96793.28;;;23.42;29.91
31595;BME280;18200;48.726;8.892;2023-04-26T21:23:06;96801.78;;;23.19;30.27
31595;BME280;18200;48.726;8.892;2023-04-26T21:27:07;96806.41;;;23.34;30.17
31595;BME280;18200;48.726;8.892;2023-04-26T21:31:07;96800.53;;;23.36;30.02
31595;BME280;18200;48.726;8.892;2023-04-26T21:35:08;96804.91;;;23.46;30.14
31595;BME280;18200;48.726;8.892;2023-04-26T21:39:10;96805.06;;;23.13;30.87
31595;BME280;18200;48.726;8.892;2023-04-26T21:43:10;96805.44;;;23.53;29.95
31595;BME280;18200;48.726;8.892;2023-04-26T21:47:11;96802.72;;;22.99;30.52
31595;BME280;18200;48.726;8.892;2023-04-26T21:51:11;96809.53;;;23.49;29.97
31595;BME280;18200;48.726;8.892;2023-04-26T21:55:11;96809.06;;;23.63;29.49
31595;BME280;18200;48.726;8.892;2023-04-26T21:59:12;96810.97;;;22.71;31.10
31595;BME280;18200;48.726;8.892;2023-04-26T22:03:13;96809.69;;;21.98;31.73
31595;BME280;18200;48.726;8.892;2023-04-26T22:07:14;96816.22;;;22.49;31.68
31595;BME280;18200;48.726;8.892;2023-04-26T22:11:14;96808.66;;;22.69;31.38
31595;BME280;18200;48.726;8.892;2023-04-26T22:15:15;96802.56;;;22.33;31.81
31595;BME280;18200;48.726;8.892;2023-04-26T22:19:15;96811.63;;;22.75;30.86
31595;BME280;18200;48.726;8.892;2023-04-26T22:23:15;96811.91;;;23.34;30.69
31595;BME280;18200;48.726;8.892;2023-04-26T22:27:16;96813.41;;;23.23;30.30
31595;BME280;18200;48.726;8.892;2023-04-26T22:31:16;96815.53;;;22.61;31.89
31595;BME280;18200;48.726;8.892;2023-04-26T22:35:18;96815.00;;;22.66;31.77
31595;BME280;18200;48.726;8.892;2023-04-26T22:39:18;96813.81;;;22.51;31.64
31595;BME280;18200;48.726;8.892;2023-04-26T22:43:19;96830.31;;;21.51;32.85
31595;BME280;18200;48.726;8.892;2023-04-26T22:47:19;96826.25;;;21.23;32.97
31595;BME280;18200;48.726;8.892;2023-04-26T22:51:22;96812.81;;;21.81;32.79
31595;BME280;18200;48.726;8.892;2023-04-26T22:55:22;96813.34;;;22.40;31.00
31595;BME280;18200;48.726;8.892;2023-04-26T22:59:22;96815.09;;;22.63;30.50
31595;BME280;18200;48.726;8.892;2023-04-26T23:03:23;96826.38;;;21.88;32.05
31595;BME280;18200;48.726;8.892;2023-04-26T23:07:23;96819.84;;;22.30;31.12
31595;BME280;18200;48.726;8.892;2023-04-26T23:11:24;96827.03;;;22.85;30.56
31595;BME280;18200;48.726;8.892;2023-04-26T23:15:24;96828.31;;;22.80;30.61
31595;BME280;18200;48.726;8.892;2023-04-26T23:19:25;96824.09;;;22.47;31.05
31595;BME280;18200;48.726;8.892;2023-04-26T23:23:25;96820.31;;;22.57;31.18